Miramar Beach, Florida
Current Conditions -  °F | °C
As of 6:53 PM on Saturday 25 Oct 2014 (Local Time) from KDTS Reporting Station
Clear Clear  
Wind Chill: 70°   Ceiling: Unl
Heat Index: 70°   Visibility: 10mi
Dew Point: 54°   Wind: 5mph
Humidity: 57%   Direction: 340°NNW
Pressure: 30.03"   Gusts: NA
Location:  30.3738°N, 86.3602°W
Report Text: KDTS 252353Z AUTO 34004KT 10SM CLR 21/12 A3003 RMK AO2 SLP167 T02110122 10267 20206 53004 TSNO
Loading
Personal Weather Stations






























Interactive Weather Map
Tropical Storm Tracking
New forecast layout! Learn more

10-Day Weather Forecast

Advertisements
Track Severe Weather on mobile